createdAt,value
2022-11-29T00:01:42.382Z,37.17
2022-11-29T00:04:09.317Z,33.50
2022-11-29T00:06:36.757Z,35.53
2022-11-29T00:09:07.305Z,39.05
2022-11-29T00:11:54.976Z,37.47
2022-11-29T00:14:23.482Z,36.97
2022-11-29T00:16:54.237Z,39.42
2022-11-29T00:19:22.688Z,44.25
2022-11-29T00:21:49.876Z,36.42
2022-11-29T00:24:19.888Z,37.85
2022-11-29T00:26:51.847Z,31.50
2022-11-29T00:29:20.401Z,29.65
2022-11-29T00:31:47.202Z,32.92
2022-11-29T00:34:14.933Z,31.40
2022-11-29T00:39:12.116Z,31.48
2022-11-29T00:41:39.863Z,34.63
2022-11-29T00:46:33.671Z,30.20
2022-11-29T00:49:00.541Z,28.55
2022-11-29T00:51:28.522Z,30.03
2022-11-29T00:53:55.168Z,27.58
2022-11-29T00:56:23.573Z,26.90
2022-11-29T00:58:50.344Z,32.95
2022-11-29T01:01:17.550Z,30.15
2022-11-29T01:03:44.482Z,33.13
2022-11-29T01:06:18.626Z,26.10
2022-11-29T01:08:47.781Z,27.88
2022-11-29T01:11:21.971Z,30.25
2022-11-29T01:13:49.904Z,31.30
2022-11-29T01:16:17.456Z,27.67
2022-11-29T01:18:44.623Z,33.35
2022-11-29T01:21:16.526Z,32.80
2022-11-29T01:23:48.129Z,25.55
2022-11-29T01:26:23.731Z,30.27
2022-11-29T01:28:55.971Z,32.75
2022-11-29T01:31:32.133Z,31.15
2022-11-29T01:34:01.869Z,28.48
2022-11-29T01:36:29.934Z,32.40
2022-11-29T01:39:00.646Z,27.90
2022-11-29T01:41:30.692Z,30.42
2022-11-29T01:44:12.177Z,28.60
2022-11-29T01:46:41.766Z,28.05
2022-11-29T01:49:11.558Z,35.00
2022-11-29T01:51:41.586Z,29.60
2022-11-29T01:54:11.287Z,33.75
2022-11-29T01:56:41.614Z,31.02
2022-11-29T01:59:13.580Z,39.03
2022-11-29T02:01:40.552Z,32.65
2022-11-29T02:04:07.889Z,29.42
2022-11-29T02:06:35.819Z,35.05
2022-11-29T02:09:20.489Z,32.35
2022-11-29T02:12:12.558Z,31.70
2022-11-29T02:15:05.480Z,31.45
2022-11-29T02:18:07.760Z,29.20
2022-11-29T02:20:55.726Z,30.08
2022-11-29T02:24:05.613Z,30.50
2022-11-29T02:27:17.801Z,32.05
2022-11-29T02:30:06.765Z,31.75
2022-11-29T02:35:53.241Z,30.60
2022-11-29T02:38:50.491Z,33.50
2022-11-29T02:41:43.264Z,32.38
2022-11-29T02:44:11.555Z,34.47
2022-11-29T02:47:14.316Z,30.10
2022-11-29T02:50:11.882Z,35.55
2022-11-29T02:52:47.457Z,30.80
2022-11-29T02:55:46.733Z,36.70
2022-11-29T02:58:30.932Z,35.85
2022-11-29T03:01:37.563Z,31.17
2022-11-29T03:04:16.626Z,35.53
2022-11-29T03:07:17.497Z,33.33
2022-11-29T03:09:50.111Z,28.65
2022-11-29T03:12:28.208Z,38.63
2022-11-29T03:15:27.568Z,37.75
2022-11-29T03:18:02.427Z,31.75
2022-11-29T03:20:35.426Z,34.25
2022-11-29T03:23:22.048Z,34.50
2022-11-29T03:26:11.274Z,40.38
2022-11-29T03:28:46.135Z,34.80
2022-11-29T03:31:51.346Z,35.03
2022-11-29T03:34:38.091Z,30.88
2022-11-29T03:37:35.624Z,35.13
2022-11-29T03:40:24.603Z,34.28
2022-11-29T03:45:37.062Z,27.95
2022-11-29T03:48:07.465Z,34.47
2022-11-29T03:50:46.070Z,33.30
2022-11-29T03:53:35.630Z,33.78
2022-11-29T03:56:22.754Z,29.08
2022-11-29T03:59:04.631Z,31.75
2022-11-29T04:02:08.024Z,36.13
2022-11-29T04:04:53.344Z,34.28
2022-11-29T04:07:41.544Z,32.58
2022-11-29T04:10:23.554Z,34.35
2022-11-29T04:13:12.225Z,35.55
2022-11-29T04:16:07.492Z,32.88
2022-11-29T04:18:59.311Z,30.58
2022-11-29T04:21:32.168Z,34.45
2022-11-29T04:24:13.348Z,33.53
2022-11-29T04:27:01.338Z,33.33
2022-11-29T04:29:49.095Z,37.65
2022-11-29T04:32:54.337Z,34.38
2022-11-29T04:35:42.692Z,35.95
2022-11-29T04:38:45.818Z,32.60
2022-11-29T04:41:37.492Z,32.53
2022-11-29T04:44:23.470Z,37.83
2022-11-29T04:47:16.712Z,31.48
2022-11-29T04:50:05.620Z,32.72
2022-11-29T04:52:51.432Z,31.63
2022-11-29T04:55:52.551Z,38.55
2022-11-29T04:58:29.320Z,35.42
2022-11-29T05:01:22.185Z,35.33
2022-11-29T05:04:14.286Z,32.53
2022-11-29T05:06:59.205Z,36.72
2022-11-29T05:10:11.155Z,35.95
2022-11-29T05:13:12.077Z,35.10
2022-11-29T05:16:16.784Z,28.98
2022-11-29T05:19:17.964Z,35.35
2022-11-29T05:21:53.617Z,34.95
2022-11-29T05:24:29.290Z,35.92
2022-11-29T05:27:18.144Z,32.85
2022-11-29T05:30:05.227Z,36.47
2022-11-29T05:33:10.734Z,38.55
2022-11-29T05:35:54.029Z,31.30
2022-11-29T05:38:52.958Z,34.50
2022-11-29T05:41:48.176Z,36.50
2022-11-29T05:44:39.046Z,35.55
2022-11-29T05:47:10.837Z,32.05
2022-11-29T05:50:00.729Z,35.28
2022-11-29T05:53:05.156Z,37.88
2022-11-29T05:55:45.177Z,33.33
2022-11-29T05:58:35.995Z,35.20
2022-11-29T06:01:14.657Z,31.10
2022-11-29T06:04:23.174Z,35.22
2022-11-29T06:07:12.711Z,33.80
2022-11-29T06:10:02.155Z,35.00
2022-11-29T06:12:31.929Z,31.45
2022-11-29T06:15:38.389Z,34.35
2022-11-29T06:18:41.604Z,32.15
2022-11-29T06:21:47.597Z,33.42
2022-11-29T06:24:25.950Z,33.20
2022-11-29T06:27:12.099Z,36.72
2022-11-29T06:30:00.875Z,35.33
2022-11-29T06:32:50.679Z,34.40
2022-11-29T06:35:40.361Z,32.10
2022-11-29T06:38:29.189Z,40.22
2022-11-29T06:41:01.811Z,36.92
2022-11-29T06:43:29.306Z,38.08
2022-11-29T06:46:47.590Z,39.65
2022-11-29T06:49:41.322Z,33.60
2022-11-29T06:52:31.373Z,39.05
2022-11-29T06:55:06.993Z,34.88
2022-11-29T06:57:46.140Z,40.33
2022-11-29T07:00:23.504Z,41.95
2022-11-29T07:03:01.559Z,37.40
2022-11-29T07:05:36.571Z,44.97
2022-11-29T07:08:18.707Z,36.80
2022-11-29T07:10:50.038Z,43.05
2022-11-29T07:13:20.562Z,39.30
2022-11-29T07:16:07.469Z,40.83
2022-11-29T07:18:47.821Z,41.05
2022-11-29T07:21:57.678Z,41.85
2022-11-29T07:24:27.065Z,39.45
2022-11-29T07:27:02.587Z,40.17
2022-11-29T07:29:35.637Z,38.20
2022-11-29T07:32:50.345Z,41.42
2022-11-29T07:35:23.866Z,35.40
2022-11-29T07:38:10.103Z,40.05
2022-11-29T07:40:59.114Z,40.22
2022-11-29T07:46:11.519Z,36.58
2022-11-29T07:48:38.357Z,35.07
2022-11-29T07:51:06.371Z,35.60
2022-11-29T07:53:37.334Z,40.70
2022-11-29T07:56:04.486Z,44.63
2022-11-29T07:58:40.636Z,41.55
2022-11-29T08:01:07.645Z,39.67
2022-11-29T08:03:35.641Z,52.83
2022-11-29T08:06:03.222Z,53.47
2022-11-29T08:08:30.097Z,37.97
2022-11-29T08:11:05.507Z,35.77
2022-11-29T08:13:33.787Z,35.88
2022-11-29T08:16:01.828Z,37.55
2022-11-29T08:18:33.135Z,32.58
2022-11-29T08:21:06.223Z,36.42
2022-11-29T08:23:33.079Z,38.00
2022-11-29T08:26:08.759Z,33.97
2022-11-29T08:28:35.600Z,36.45
2022-11-29T08:31:06.275Z,34.43
2022-11-29T08:33:38.753Z,34.78
2022-11-29T08:36:06.884Z,39.03
2022-11-29T08:38:33.700Z,34.15
2022-11-29T08:41:03.384Z,32.47
2022-11-29T08:43:32.512Z,31.48
2022-11-29T08:46:03.296Z,31.50
2022-11-29T08:48:30.195Z,30.17
2022-11-29T08:50:59.551Z,37.67
2022-11-29T08:53:44.185Z,30.85
2022-11-29T08:57:04.486Z,28.80
2022-11-29T08:59:06.075Z,30.73
2022-11-29T09:04:00.085Z,30.67
2022-11-29T09:06:29.534Z,33.27
2022-11-29T09:08:57.185Z,34.33
2022-11-29T09:13:57.388Z,30.60
2022-11-29T09:16:26.944Z,32.03
2022-11-29T09:18:56.282Z,31.80
2022-11-29T09:21:27.137Z,32.40
2022-11-29T09:23:59.380Z,28.48
2022-11-29T09:26:33.646Z,29.50
2022-11-29T09:29:02.303Z,27.85
2022-11-29T09:31:31.287Z,29.83
2022-11-29T09:33:58.333Z,29.50
2022-11-29T09:36:28.844Z,32.63
2022-11-29T09:38:57.306Z,27.88
2022-11-29T09:41:48.497Z,24.58
2022-11-29T09:44:40.009Z,26.13
2022-11-29T09:47:39.898Z,26.15
2022-11-29T09:50:34.197Z,33.55
2022-11-29T09:53:30.621Z,27.98
2022-11-29T09:56:18.373Z,26.48
2022-11-29T09:59:05.848Z,28.02
2022-11-29T10:01:40.615Z,30.13
2022-11-29T10:04:20.123Z,29.65
2022-11-29T10:06:55.902Z,30.05
2022-11-29T10:09:29.549Z,31.05
2022-11-29T10:12:38.104Z,30.23
2022-11-29T10:15:14.193Z,26.63
2022-11-29T10:18:05.123Z,31.13
2022-11-29T10:20:41.367Z,30.67
2022-11-29T10:23:35.748Z,29.55
2022-11-29T10:26:11.041Z,30.85
2022-11-29T10:28:44.876Z,34.13
2022-11-29T10:31:25.054Z,35.72
2022-11-29T10:33:51.919Z,35.65
2022-11-29T10:36:35.078Z,35.97
2022-11-29T10:39:16.536Z,43.42
2022-11-29T10:41:43.554Z,36.20
2022-11-29T10:44:14.357Z,41.28
2022-11-29T10:46:41.809Z,39.55
2022-11-29T10:49:20.682Z,36.55
2022-11-29T10:51:50.820Z,39.92
2022-11-29T10:57:14.558Z,41.80
2022-11-29T10:59:41.499Z,41.15
2022-11-29T11:02:19.246Z,40.58
2022-11-29T11:04:49.614Z,47.53
2022-11-29T11:07:35.665Z,40.85
2022-11-29T11:10:16.384Z,42.60
2022-11-29T11:13:02.064Z,40.70
2022-11-29T11:15:32.059Z,43.05
2022-11-29T11:18:09.828Z,40.63
2022-11-29T11:20:41.728Z,40.85
2022-11-29T11:23:26.949Z,37.83
2022-11-29T11:25:58.508Z,36.58
2022-11-29T11:28:50.786Z,38.67
2022-11-29T11:31:27.768Z,37.80
2022-11-29T11:33:56.026Z,34.30
2022-11-29T11:36:25.876Z,33.33
2022-11-29T11:38:54.622Z,34.70
2022-11-29T11:41:46.035Z,32.17
2022-11-29T11:44:49.901Z,29.95
2022-11-29T11:47:26.288Z,35.28
2022-11-29T11:50:02.661Z,34.30
2022-11-29T11:52:40.524Z,32.13
2022-11-29T11:55:33.585Z,36.33
2022-11-29T11:58:10.309Z,31.63
2022-11-29T12:03:35.450Z,28.70
2022-11-29T12:06:34.472Z,30.80
2022-11-29T12:09:23.736Z,31.50
2022-11-29T12:12:30.280Z,34.85
2022-11-29T12:15:17.167Z,38.75
2022-11-29T12:17:49.522Z,35.58
2022-11-29T12:20:32.047Z,36.47
2022-11-29T12:23:14.185Z,33.90
2022-11-29T12:26:00.537Z,32.95
2022-11-29T12:28:34.921Z,33.85
2022-11-29T12:31:37.147Z,32.55
2022-11-29T12:34:29.069Z,33.78
2022-11-29T12:37:17.387Z,34.80
2022-11-29T12:40:14.694Z,38.47
2022-11-29T12:42:46.577Z,35.30
2022-11-29T12:45:34.808Z,36.47
2022-11-29T12:48:01.458Z,34.10
2022-11-29T12:51:09.501Z,34.47
2022-11-29T12:54:04.669Z,34.08
2022-11-29T12:56:55.305Z,33.35
2022-11-29T13:00:07.052Z,35.78
2022-11-29T13:02:58.471Z,34.75
2022-11-29T13:05:34.029Z,34.38
2022-11-29T13:08:31.836Z,33.15
2022-11-29T13:11:22.643Z,35.47
2022-11-29T13:13:51.937Z,38.70
2022-11-29T13:16:37.766Z,34.78
2022-11-29T13:19:24.671Z,32.95
2022-11-29T13:22:13.219Z,30.95
2022-11-29T13:24:49.437Z,35.55
2022-11-29T13:27:26.519Z,31.98
2022-11-29T13:29:54.389Z,33.25
2022-11-29T13:32:44.953Z,35.80
2022-11-29T13:35:36.501Z,32.63
2022-11-29T13:38:18.663Z,33.03
2022-11-29T13:41:10.190Z,32.83
2022-11-29T13:43:45.620Z,31.45
2022-11-29T13:46:46.075Z,30.85
2022-11-29T13:49:50.231Z,30.15
2022-11-29T13:52:40.598Z,28.88
2022-11-29T13:55:18.336Z,31.02
2022-11-29T13:58:15.613Z,31.98
2022-11-29T14:00:50.898Z,29.77
2022-11-29T14:03:23.566Z,32.92
2022-11-29T14:05:53.420Z,27.23
2022-11-29T14:08:42.207Z,33.90
2022-11-29T14:11:16.102Z,32.25
2022-11-29T14:13:59.709Z,33.58
2022-11-29T14:16:47.546Z,33.70
2022-11-29T14:19:30.098Z,30.48
2022-11-29T14:22:02.845Z,31.88
2022-11-29T14:27:12.463Z,34.85
2022-11-29T14:29:48.458Z,33.05
2022-11-29T14:32:30.684Z,31.70
2022-11-29T14:35:12.877Z,33.03
2022-11-29T14:37:51.480Z,32.92
2022-11-29T14:40:22.787Z,27.17
2022-11-29T14:42:53.019Z,29.30
2022-11-29T14:45:35.144Z,36.85
2022-11-29T14:48:05.457Z,33.38
2022-11-29T14:50:38.695Z,33.08
2022-11-29T14:53:07.795Z,29.80
2022-11-29T14:55:37.382Z,30.60
2022-11-29T14:58:20.269Z,32.28
2022-11-29T15:00:58.812Z,28.60
2022-11-29T15:03:31.873Z,32.70
2022-11-29T15:06:08.160Z,35.25
2022-11-29T15:09:11.445Z,28.15
2022-11-29T15:11:50.881Z,27.13
2022-11-29T15:14:27.742Z,28.92
2022-11-29T15:17:18.258Z,31.60
2022-11-29T15:19:47.982Z,29.17
2022-11-29T15:22:21.064Z,27.35
2022-11-29T15:24:55.199Z,31.08
2022-11-29T15:27:23.032Z,33.55
2022-11-29T15:29:50.501Z,27.33
2022-11-29T15:32:29.745Z,28.15
2022-11-29T15:34:57.447Z,30.67
2022-11-29T15:40:15.347Z,28.90
2022-11-29T15:42:57.956Z,29.58
2022-11-29T15:45:34.870Z,32.08
2022-11-29T15:48:31.562Z,30.08
2022-11-29T15:51:26.513Z,40.38
2022-11-29T15:54:12.683Z,44.10
2022-11-29T15:56:46.359Z,46.55
2022-11-29T15:59:40.793Z,32.65
2022-11-29T16:02:20.565Z,35.08
2022-11-29T16:04:53.837Z,31.13
2022-11-29T16:07:22.673Z,30.15
2022-11-29T16:09:59.775Z,34.78
2022-11-29T16:12:26.686Z,33.80
2022-11-29T16:14:59.708Z,34.23
2022-11-29T16:17:36.009Z,34.63
2022-11-29T16:20:24.437Z,29.60
2022-11-29T16:23:11.771Z,33.47
2022-11-29T16:26:01.106Z,33.13
2022-11-29T16:28:48.293Z,32.58
2022-11-29T16:31:23.840Z,31.33
2022-11-29T16:33:56.053Z,38.60
2022-11-29T16:36:25.236Z,32.53
2022-11-29T16:39:30.074Z,36.97
2022-11-29T16:42:23.607Z,34.97
2022-11-29T16:45:04.022Z,33.08
2022-11-29T16:47:48.080Z,32.28
2022-11-29T16:50:25.211Z,34.97
2022-11-29T16:52:56.824Z,32.45
2022-11-29T16:55:24.345Z,31.88
2022-11-29T16:57:52.173Z,38.55
2022-11-29T17:00:36.576Z,37.88
2022-11-29T17:03:05.844Z,40.22
2022-11-29T17:05:44.410Z,36.30
2022-11-29T17:08:21.599Z,40.97
2022-11-29T17:10:48.385Z,39.90
2022-11-29T17:13:16.204Z,39.77
2022-11-29T17:15:42.992Z,43.08
2022-11-29T17:18:09.760Z,41.53
2022-11-29T17:20:39.144Z,35.67
2022-11-29T17:23:06.305Z,35.78
2022-11-29T17:25:33.121Z,38.75
2022-11-29T17:27:59.988Z,37.30
2022-11-29T17:30:28.850Z,38.63
2022-11-29T17:32:56.538Z,36.17
2022-11-29T17:37:50.193Z,38.60
2022-11-29T17:40:18.189Z,43.83
2022-11-29T17:43:16.874Z,47.90
2022-11-29T17:45:44.014Z,48.38
2022-11-29T17:48:10.881Z,46.33
2022-11-29T17:50:42.134Z,50.37
2022-11-29T17:53:09.131Z,51.78
2022-11-29T17:55:42.786Z,56.03
2022-11-29T17:58:09.839Z,57.17
2022-11-29T18:00:36.567Z,51.90
2022-11-29T18:03:03.296Z,53.58
2022-11-29T18:05:34.522Z,47.60
2022-11-29T18:08:01.892Z,51.13
2022-11-29T18:10:28.846Z,53.70
2022-11-29T18:12:56.449Z,52.10
2022-11-29T18:17:51.521Z,65.37
2022-11-29T18:20:25.286Z,63.08
2022-11-29T18:22:53.345Z,64.18
2022-11-29T18:25:40.027Z,65.32
2022-11-29T18:28:11.614Z,64.30
2022-11-29T18:30:38.553Z,64.78
2022-11-29T18:33:05.538Z,64.88
2022-11-29T18:35:32.590Z,68.22
2022-11-29T18:38:14.752Z,57.63
2022-11-29T18:40:45.777Z,69.10
2022-11-29T18:43:16.275Z,67.47
2022-11-29T18:45:43.249Z,57.90
2022-11-29T18:48:12.324Z,78.53
2022-11-29T18:50:39.207Z,72.43
2022-11-29T18:53:05.979Z,80.50
2022-11-29T18:55:33.283Z,81.17
2022-11-29T18:58:00.025Z,68.82
2022-11-29T19:00:28.847Z,77.93
2022-11-29T19:02:56.605Z,82.72
2022-11-29T19:05:23.419Z,81.13
2022-11-29T19:07:52.256Z,86.00
2022-11-29T19:10:24.852Z,86.95
2022-11-29T19:12:51.678Z,80.18
2022-11-29T19:15:19.433Z,82.20
2022-11-29T19:20:14.096Z,75.10
2022-11-29T19:22:41.995Z,85.75
2022-11-29T19:25:09.125Z,79.30
2022-11-29T19:27:35.831Z,70.28
2022-11-29T19:30:02.858Z,73.90
2022-11-29T19:32:29.962Z,77.35
2022-11-29T19:34:57.344Z,76.15
2022-11-29T19:37:30.511Z,68.32
2022-11-29T19:39:58.302Z,63.28
2022-11-29T19:42:26.170Z,59.42
2022-11-29T19:45:15.969Z,59.90
2022-11-29T19:47:43.043Z,62.37
2022-11-29T19:50:16.048Z,62.47
2022-11-29T19:52:42.956Z,60.13
2022-11-29T19:55:10.901Z,53.05
2022-11-29T19:57:38.023Z,59.78
2022-11-29T20:00:07.404Z,58.00
2022-11-29T20:02:34.387Z,56.05
2022-11-29T20:05:02.445Z,51.63
2022-11-29T20:07:32.541Z,50.90
2022-11-29T20:10:08.178Z,57.55
2022-11-29T20:12:35.073Z,64.03
2022-11-29T20:15:01.876Z,57.33
2022-11-29T20:17:32.628Z,54.87
2022-11-29T20:19:59.409Z,50.22
2022-11-29T20:22:27.659Z,60.80
2022-11-29T20:24:55.156Z,55.08
2022-11-29T20:27:25.964Z,54.85
2022-11-29T20:29:52.773Z,63.30
2022-11-29T20:32:19.682Z,58.30
2022-11-29T20:34:49.387Z,56.47
2022-11-29T20:37:26.362Z,53.60
2022-11-29T20:40:01.528Z,57.08
2022-11-29T20:42:49.681Z,46.35
2022-11-29T20:45:17.170Z,53.60
2022-11-29T20:47:53.755Z,56.17
2022-11-29T20:50:24.205Z,51.78
2022-11-29T20:53:02.356Z,49.85
2022-11-29T20:55:31.378Z,45.88
2022-11-29T20:57:59.147Z,42.78
2022-11-29T21:00:27.038Z,51.00
2022-11-29T21:02:56.190Z,49.55
2022-11-29T21:05:24.083Z,48.47
2022-11-29T21:07:52.311Z,57.00
2022-11-29T21:10:19.421Z,58.95
2022-11-29T21:12:59.203Z,65.38
2022-11-29T21:15:30.184Z,66.32
2022-11-29T21:18:00.892Z,70.72
2022-11-29T21:20:27.970Z,66.28
2022-11-29T21:23:13.241Z,73.45
2022-11-29T21:26:01.069Z,65.68
2022-11-29T21:28:34.541Z,64.95
2022-11-29T21:31:01.616Z,64.40
2022-11-29T21:33:29.999Z,56.88
2022-11-29T21:35:58.095Z,57.63
2022-11-29T21:38:26.797Z,52.70
2022-11-29T21:40:55.673Z,55.00
2022-11-29T21:43:32.724Z,52.78
2022-11-29T21:46:09.214Z,59.78
2022-11-29T21:48:38.002Z,56.63
2022-11-29T21:51:06.863Z,51.20
2022-11-29T21:53:35.689Z,50.92
2022-11-29T21:56:05.769Z,53.15
2022-11-29T21:58:33.853Z,54.30
2022-11-29T22:01:17.381Z,47.83
2022-11-29T22:03:44.515Z,54.05
2022-11-29T22:06:18.313Z,54.55
2022-11-29T22:08:45.235Z,54.97
2022-11-29T22:11:15.225Z,53.33
2022-11-29T22:14:02.951Z,57.97
2022-11-29T22:16:30.802Z,56.20
2022-11-29T22:18:57.566Z,58.50
2022-11-29T22:21:24.376Z,59.45
2022-11-29T22:23:53.601Z,57.50
2022-11-29T22:26:20.427Z,56.63
2022-11-29T22:28:49.816Z,52.80
2022-11-29T22:31:17.667Z,51.90
2022-11-29T22:33:44.437Z,50.88
2022-11-29T22:36:12.675Z,55.77
2022-11-29T22:38:39.872Z,56.85
2022-11-29T22:41:18.468Z,56.50
2022-11-29T22:43:48.454Z,58.95
2022-11-29T22:46:19.296Z,54.33
2022-11-29T22:48:50.713Z,51.13
2022-11-29T22:51:21.297Z,58.78
2022-11-29T22:53:53.203Z,56.63
2022-11-29T22:56:21.372Z,56.30
2022-11-29T22:58:48.301Z,56.53
2022-11-29T23:01:20.036Z,57.13
2022-11-29T23:03:53.152Z,64.35
2022-11-29T23:06:21.680Z,59.88
2022-11-29T23:08:49.258Z,54.53
2022-11-29T23:11:21.516Z,57.67
2022-11-29T23:13:48.455Z,54.17
2022-11-29T23:16:21.935Z,55.15
2022-11-29T23:18:48.978Z,55.05
2022-11-29T23:21:24.618Z,51.67
2022-11-29T23:23:56.397Z,52.08
2022-11-29T23:26:31.075Z,50.65
2022-11-29T23:28:58.544Z,52.50
2022-11-29T23:31:27.436Z,52.78
2022-11-29T23:33:54.641Z,53.10
2022-11-29T23:36:21.429Z,51.03
2022-11-29T23:38:48.231Z,49.90
2022-11-29T23:41:22.212Z,54.63
2022-11-29T23:43:48.928Z,53.05
2022-11-29T23:46:19.649Z,48.17
2022-11-29T23:48:46.662Z,50.53
2022-11-29T23:51:14.258Z,53.97
2022-11-29T23:53:41.431Z,57.75
2022-11-29T23:56:15.295Z,46.97
2022-11-29T23:58:42.961Z,54.53
